Time;durP1;ratioP1;P1;durP2;ratioP2;P2;SDS_P1;SDS_P2;PMS_P1;PMS_P2;Temp;Humidity;BMP_temperature;BMP_pressure;BME280_temperature;BME280_humidity;BME280_pressure;Samples;Min_cycle;Max_cycle;Signal;HPM_P1;HPM_P2
2021/06/23 00:00:26;;;;;;;7.82;4.28;;;19.00;91.20;;;;;;5036462;28;20028;-83
2021/06/23 00:02:52;;;;;;;6.75;4.80;;;19.00;91.40;;;;;;5054314;28;20060;-83
2021/06/23 00:05:19;;;;;;;9.27;5.25;;;19.00;91.80;;;;;;5036917;28;20032;-82
2021/06/23 00:07:44;;;;;;;7.82;5.05;;;19.00;91.50;;;;;;5036494;28;20048;-86
2021/06/23 00:10:12;;;;;;;7.93;4.65;;;19.00;91.60;;;;;;5053469;28;20478;-84
2021/06/23 00:12:38;;;;;;;8.95;4.80;;;19.10;91.50;;;;;;5037140;28;20365;-83
2021/06/23 00:15:04;;;;;;;7.68;5.07;;;19.00;91.40;;;;;;5036681;28;20036;-83
2021/06/23 00:17:30;;;;;;;8.52;5.03;;;19.00;91.40;;;;;;5036905;28;20033;-83
2021/06/23 00:19:56;;;;;;;6.85;4.82;;;19.00;91.50;;;;;;5054871;28;20028;-83
2021/06/23 00:22:22;;;;;;;7.35;4.65;;;19.00;91.60;;;;;;5036690;28;20025;-83
2021/06/23 00:24:48;;;;;;;8.75;4.53;;;19.00;91.90;;;;;;5036362;28;20082;-83
2021/06/23 00:27:13;;;;;;;7.25;4.65;;;19.00;91.60;;;;;;5036796;28;20024;-83
2021/06/23 00:29:39;;;;;;;7.35;5.30;;;19.00;91.60;;;;;;5036694;28;20021;-83
2021/06/23 00:32:07;;;;;;;7.28;5.28;;;19.00;91.60;;;;;;5036598;28;20021;-83
2021/06/23 00:34:36;;;;;;;8.10;4.28;;;19.00;91.80;;;;;;5036689;28;20366;-84
2021/06/23 00:37:01;;;;;;;8.02;4.63;;;18.90;91.90;;;;;;5036368;28;20070;-84
2021/06/23 00:39:27;;;;;;;11.75;5.22;;;18.90;92.00;;;;;;5036003;28;20480;-83
2021/06/23 00:41:52;;;;;;;10.05;4.85;;;18.90;92.00;;;;;;5044001;28;20023;-83
2021/06/23 00:44:18;;;;;;;7.10;4.68;;;19.00;91.90;;;;;;5055584;28;20045;-83
2021/06/23 00:46:44;;;;;;;9.45;4.95;;;19.00;91.80;;;;;;5055949;28;20024;-83
2021/06/23 00:49:10;;;;;;;9.93;5.10;;;19.00;91.80;;;;;;5073246;28;20025;-83
2021/06/23 00:51:37;;;;;;;8.30;5.15;;;19.00;91.80;;;;;;5055883;28;20016;-83
2021/06/23 00:54:10;;;;;;;7.95;4.82;;;19.00;91.80;;;;;;5055253;28;20021;-83
2021/06/23 00:56:36;;;;;;;8.35;4.75;;;19.00;91.80;;;;;;5055922;28;20105;-83
2021/06/23 00:59:03;;;;;;;10.18;5.07;;;19.00;91.60;;;;;;5055229;28;20025;-83
2021/06/23 01:01:31;;;;;;;9.20;4.93;;;19.00;91.60;;;;;;5073331;28;20027;-83
2021/06/23 01:03:58;;;;;;;10.25;5.32;;;19.00;91.50;;;;;;5054780;28;20070;-83
2021/06/23 01:06:24;;;;;;;11.45;5.05;;;19.00;91.60;;;;;;5073567;28;20457;-84
2021/06/23 01:08:50;;;;;;;9.25;5.30;;;19.00;91.60;;;;;;5072951;28;20012;-84
2021/06/23 01:11:16;;;;;;;7.70;5.05;;;19.00;91.70;;;;;;5055401;28;20048;-84
2021/06/23 01:13:45;;;;;;;7.10;4.68;;;19.00;91.60;;;;;;5058822;28;20017;-84
2021/06/23 01:16:12;;;;;;;7.85;4.55;;;19.10;91.70;;;;;;5059002;28;20032;-84
2021/06/23 01:18:38;;;;;;;8.57;5.30;;;19.10;91.50;;;;;;5059378;28;20032;-84
2021/06/23 01:21:06;;;;;;;8.80;4.63;;;19.00;91.60;;;;;;5058905;28;20025;-84
2021/06/23 01:23:32;;;;;;;6.88;4.60;;;19.00;91.70;;;;;;5059268;28;20025;-84
2021/06/23 01:25:58;;;;;;;8.02;4.78;;;19.10;91.80;;;;;;5076146;28;20041;-85
2021/06/23 01:28:23;;;;;;;8.88;5.57;;;19.10;91.60;;;;;;5058945;28;20023;-84
2021/06/23 01:30:49;;;;;;;7.32;5.10;;;19.10;91.50;;;;;;5058636;28;20352;-89
2021/06/23 01:33:15;;;;;;;7.13;5.25;;;19.20;91.50;;;;;;5059342;28;20086;-85
2021/06/23 01:35:45;;;;;;;8.55;5.28;;;19.10;91.40;;;;;;5059318;28;20123;-84
2021/06/23 01:38:11;;;;;;;7.82;5.03;;;19.10;91.40;;;;;;5058816;28;20028;-84
2021/06/23 01:40:37;;;;;;;7.28;5.20;;;19.10;91.40;;;;;;5077112;28;20036;-83
2021/06/23 01:43:02;;;;;;;7.90;4.50;;;19.10;91.50;;;;;;5040283;28;20469;-83
2021/06/23 01:45:28;;;;;;;9.80;4.88;;;19.10;91.50;;;;;;5039569;28;20024;-83
2021/06/23 01:47:55;;;;;;;9.70;5.43;;;19.10;91.40;;;;;;5038799;28;20017;-84
2021/06/23 01:50:22;;;;;;;10.55;5.70;;;19.10;91.40;;;;;;5038916;28;20449;-83
2021/06/23 01:52:47;;;;;;;8.63;5.18;;;19.20;91.40;;;;;;5038834;28;20027;-84
2021/06/23 01:55:29;;;;;;;15.18;5.90;;;19.20;91.40;;;;;;5056243;28;20112;-83
2021/06/23 01:58:02;;;;;;;8.82;5.05;;;19.10;91.40;;;;;;5038779;28;20025;-84
2021/06/23 02:00:42;;;;;;;7.47;5.00;;;19.10;91.30;;;;;;5038936;28;20049;-85
2021/06/23 02:03:15;;;;;;;13.32;6.13;;;19.10;91.40;;;;;;5038721;28;20064;-83
2021/06/23 02:05:58;;;;;;;10.95;6.05;;;19.10;91.40;;;;;;5039031;28;20075;-82
2021/06/23 02:08:42;;;;;;;11.15;6.10;;;19.10;91.50;;;;;;5039529;28;20021;-82
2021/06/23 02:11:08;;;;;;;13.95;6.60;;;19.00;91.40;;;;;;5038132;28;20032;-84
2021/06/23 02:14:04;;;;;;;9.32;7.07;;;19.00;91.50;;;;;;5038627;28;20024;-84
2021/06/23 02:16:31;;;;;;;10.52;6.97;;;19.00;91.40;;;;;;5038792;28;20102;-84
2021/06/23 02:19:03;;;;;;;10.15;6.80;;;19.10;91.40;;;;;;5038925;28;20025;-85
2021/06/23 02:21:30;;;;;;;10.40;6.50;;;19.10;91.30;;;;;;5056249;28;20481;-85
2021/06/23 02:23:56;;;;;;;11.80;7.00;;;19.10;91.20;;;;;;5037751;28;20028;-85
2021/06/23 02:26:24;;;;;;;10.52;6.72;;;19.00;91.30;;;;;;5038528;28;20466;-85
2021/06/23 02:28:49;;;;;;;12.30;7.47;;;19.00;91.60;;;;;;5038261;28;20025;-85
2021/06/23 02:31:15;;;;;;;12.00;6.70;;;19.00;91.40;;;;;;5037682;28;20028;-84
2021/06/23 02:33:41;;;;;;;15.50;7.70;;;19.00;91.40;;;;;;5038718;28;20481;-84
2021/06/23 02:36:08;;;;;;;11.35;6.97;;;19.00;91.40;;;;;;5055827;28;20052;-84
2021/06/23 02:38:34;;;;;;;11.52;6.88;;;19.00;91.50;;;;;;5038411;28;20025;-84
2021/06/23 02:41:00;;;;;;;10.70;6.80;;;18.90;91.60;;;;;;5056803;28;20021;-85
2021/06/23 02:43:26;;;;;;;12.95;7.43;;;18.90;91.60;;;;;;5054705;28;20047;-84
2021/06/23 02:45:54;;;;;;;12.93;7.32;;;18.90;91.60;;;;;;5055682;28;20040;-95
2021/06/23 02:48:21;;;;;;;14.25;7.65;;;18.90;91.80;;;;;;5055390;28;20436;-83
2021/06/23 02:50:59;;;;;;;15.20;7.30;;;18.90;91.80;;;;;;5056205;28;20032;-85
2021/06/23 02:53:27;;;;;;;11.88;6.80;;;18.80;91.90;;;;;;5055040;28;20016;-85
2021/06/23 02:55:55;;;;;;;12.95;7.05;;;18.80;91.90;;;;;;5054576;28;20060;-85
2021/06/23 02:58:20;;;;;;;11.90;7.13;;;18.80;92.00;;;;;;5056118;28;20066;-84
2021/06/23 03:00:46;;;;;;;11.10;6.68;;;18.80;92.20;;;;;;5056171;28;20021;-84
2021/06/23 03:03:12;;;;;;;14.55;7.53;;;18.80;92.20;;;;;;5054559;28;20021;-84
2021/06/23 03:05:38;;;;;;;13.65;7.38;;;18.80;92.20;;;;;;5054715;28;20531;-85
2021/06/23 03:08:04;;;;;;;14.00;7.28;;;18.80;92.40;;;;;;5054507;28;20055;-85
2021/06/23 03:10:30;;;;;;;13.75;7.63;;;18.80;92.40;;;;;;5053640;28;20025;-84
2021/06/23 03:12:55;;;;;;;11.55;7.82;;;18.80;92.50;;;;;;5037229;28;20018;-85
2021/06/23 03:15:21;;;;;;;13.40;8.27;;;18.80;92.60;;;;;;5018263;28;20033;-85
2021/06/23 03:17:47;;;;;;;12.65;7.13;;;18.80;92.60;;;;;;5018319;28;20028;-85
2021/06/23 03:20:13;;;;;;;14.55;7.43;;;18.80;92.60;;;;;;5018312;28;20032;-85
2021/06/23 03:22:38;;;;;;;14.65;7.45;;;18.80;92.60;;;;;;5018354;28;20049;-85
2021/06/23 03:25:05;;;;;;;12.95;7.93;;;18.70;92.70;;;;;;5035964;28;20037;-85
2021/06/23 03:27:30;;;;;;;10.43;7.28;;;18.70;92.80;;;;;;5036077;28;20048;-85
2021/06/23 03:29:56;;;;;;;14.10;7.32;;;18.60;92.80;;;;;;5018082;28;20537;-86
2021/06/23 03:32:22;;;;;;;11.93;7.65;;;18.60;92.90;;;;;;5018089;28;20036;-85
2021/06/23 03:34:47;;;;;;;11.43;7.45;;;18.60;92.80;;;;;;5017071;28;20417;-83
2021/06/23 03:37:14;;;;;;;11.40;7.50;;;18.60;92.80;;;;;;5017215;28;20454;-84
2021/06/23 03:39:40;;;;;;;14.18;8.02;;;18.60;92.80;;;;;;5050346;28;20074;-86
2021/06/23 03:42:06;;;;;;;10.15;6.97;;;18.60;93.20;;;;;;5042622;28;20045;-83
2021/06/23 03:44:32;;;;;;;14.40;8.13;;;18.60;93.00;;;;;;5030163;28;20041;-84
2021/06/23 03:46:59;;;;;;;15.18;7.68;;;18.60;93.00;;;;;;5036682;28;20424;-84
2021/06/23 03:49:24;;;;;;;13.77;7.70;;;18.60;93.10;;;;;;5036941;28;20075;-83
2021/06/23 03:51:50;;;;;;;13.38;7.50;;;18.60;93.00;;;;;;5037079;28;20454;-83
2021/06/23 03:54:16;;;;;;;13.40;7.72;;;18.60;93.00;;;;;;5054548;28;20033;-83
2021/06/23 03:56:42;;;;;;;11.10;7.53;;;18.60;93.00;;;;;;5054648;28;20459;-83
2021/06/23 03:59:07;;;;;;;11.38;6.63;;;18.60;93.00;;;;;;5036173;28;20025;-82
2021/06/23 04:01:33;;;;;;;11.45;7.20;;;18.60;92.90;;;;;;5037293;28;20040;-83
2021/06/23 04:03:59;;;;;;;11.75;6.55;;;18.60;92.80;;;;;;5037491;28;20111;-82
2021/06/23 04:06:24;;;;;;;12.93;7.15;;;18.50;93.00;;;;;;5037337;28;20035;-83
2021/06/23 04:08:50;;;;;;;11.57;7.25;;;18.50;92.70;;;;;;5036595;28;20387;-83
2021/06/23 04:11:15;;;;;;;14.50;7.38;;;18.50;92.90;;;;;;5054601;28;20055;-83
2021/06/23 04:13:41;;;;;;;11.90;7.53;;;18.50;93.00;;;;;;5037103;28;20469;-83
2021/06/23 04:16:07;;;;;;;11.07;7.35;;;18.50;93.00;;;;;;5037130;28;20462;-84
2021/06/23 04:18:32;;;;;;;14.10;7.13;;;18.50;92.90;;;;;;5038110;28;20024;-84
2021/06/23 04:20:58;;;;;;;12.07;7.57;;;18.50;93.30;;;;;;5054822;28;20385;-84
2021/06/23 04:23:27;;;;;;;13.55;7.38;;;18.50;93.00;;;;;;5036889;28;20534;-83
2021/06/23 04:25:52;;;;;;;12.98;7.65;;;18.50;93.00;;;;;;5054774;28;20028;-84
2021/06/23 04:28:18;;;;;;;12.93;7.28;;;18.50;92.90;;;;;;5037087;28;20025;-84
2021/06/23 04:30:44;;;;;;;14.02;7.80;;;18.50;93.00;;;;;;5037093;28;20058;-84
2021/06/23 04:33:09;;;;;;;13.00;8.13;;;18.50;93.00;;;;;;5037428;28;20116;-84
2021/06/23 04:35:35;;;;;;;12.45;7.88;;;18.40;92.90;;;;;;5037097;28;20477;-84
2021/06/23 04:38:00;;;;;;;10.30;6.82;;;18.40;93.00;;;;;;5037001;28;20021;-85
2021/06/23 04:40:26;;;;;;;14.07;8.32;;;18.40;93.00;;;;;;5054560;28;20036;-84
2021/06/23 04:42:52;;;;;;;18.55;7.82;;;18.40;93.00;;;;;;5036748;28;20028;-84
2021/06/23 04:45:17;;;;;;;11.68;7.30;;;18.40;93.00;;;;;;5036466;28;20061;-83
2021/06/23 04:47:43;;;;;;;13.25;7.95;;;18.40;93.00;;;;;;5040025;28;20462;-84
2021/06/23 04:50:10;;;;;;;13.10;7.88;;;18.50;92.90;;;;;;5040203;28;20538;-84
2021/06/23 04:52:36;;;;;;;14.15;7.65;;;18.50;92.70;;;;;;5040310;28;20457;-84
2021/06/23 04:55:04;;;;;;;11.15;7.35;;;18.40;92.80;;;;;;5040158;28;20098;-83
2021/06/23 04:57:29;;;;;;;14.57;7.55;;;18.40;92.80;;;;;;5040894;28;20021;-83
2021/06/23 04:59:55;;;;;;;12.60;7.60;;;18.40;92.80;;;;;;5041188;28;20044;-83
2021/06/23 05:02:21;;;;;;;12.15;7.43;;;18.40;92.90;;;;;;5040098;28;20090;-84
2021/06/23 05:04:47;;;;;;;11.38;7.32;;;18.40;92.70;;;;;;5039865;28;20025;-84
2021/06/23 05:07:13;;;;;;;16.23;8.07;;;18.50;92.70;;;;;;5039509;28;20021;-84
2021/06/23 05:09:39;;;;;;;12.55;7.70;;;18.50;92.50;;;;;;5058675;28;20025;-84
2021/06/23 05:12:06;;;;;;;13.73;7.80;;;18.40;92.40;;;;;;5049754;28;20021;-84
2021/06/23 05:14:31;;;;;;;13.05;7.55;;;18.40;92.50;;;;;;5040508;28;20028;-84
2021/06/23 05:16:57;;;;;;;13.10;7.15;;;18.50;92.60;;;;;;5040128;28;20021;-91
2021/06/23 05:19:23;;;;;;;11.73;6.78;;;18.40;92.50;;;;;;5040053;28;20035;-84
2021/06/23 05:21:50;;;;;;;13.27;7.20;;;18.40;92.50;;;;;;5057756;28;20108;-83
2021/06/23 05:24:16;;;;;;;10.57;6.80;;;18.40;92.50;;;;;;5040354;28;20036;-83
2021/06/23 05:26:42;;;;;;;17.00;7.80;;;18.40;92.60;;;;;;5039831;28;20017;-82
2021/06/23 05:29:08;;;;;;;12.20;7.40;;;18.30;92.40;;;;;;5056221;28;20028;-82
2021/06/23 05:31:34;;;;;;;11.65;7.00;;;18.30;92.40;;;;;;5039458;28;20028;-82
2021/06/23 05:34:00;;;;;;;13.10;7.22;;;18.30;92.40;;;;;;5039032;28;20024;-82
2021/06/23 05:36:26;;;;;;;10.95;7.32;;;18.30;92.50;;;;;;5039289;28;20119;-83
2021/06/23 05:38:53;;;;;;;11.15;7.60;;;18.30;92.50;;;;;;5051796;28;20453;-84
2021/06/23 05:41:18;;;;;;;13.10;8.10;;;18.30;92.60;;;;;;5054871;28;20033;-84
2021/06/23 05:43:44;;;;;;;14.82;8.82;;;18.30;92.60;;;;;;5049731;28;20045;-84
2021/06/23 05:46:10;;;;;;;12.93;8.57;;;18.40;92.40;;;;;;5019825;28;20116;-84
2021/06/23 05:48:36;;;;;;;16.67;9.98;;;18.40;92.40;;;;;;5036745;28;20053;-83
2021/06/23 05:51:02;;;;;;;14.13;9.32;;;18.50;92.40;;;;;;5018701;28;20060;-85
2021/06/23 05:53:27;;;;;;;14.55;9.80;;;18.50;92.50;;;;;;5019269;28;20047;-84
2021/06/23 05:55:55;;;;;;;15.80;9.57;;;18.50;92.40;;;;;;5019239;28;20029;-82
2021/06/23 05:58:24;;;;;;;13.60;8.93;;;18.60;92.30;;;;;;5018321;28;20083;-84
2021/06/23 06:00:50;;;;;;;17.35;9.82;;;18.70;92.20;;;;;;5020092;28;20021;-83
2021/06/23 06:03:15;;;;;;;18.13;10.48;;;18.80;92.10;;;;;;5019165;28;20109;-83
2021/06/23 06:05:41;;;;;;;19.88;10.60;;;18.80;91.90;;;;;;5019848;28;20021;-84
2021/06/23 06:08:07;;;;;;;15.02;9.63;;;18.90;91.90;;;;;;5025010;28;20454;-85
2021/06/23 06:10:33;;;;;;;21.42;12.15;;;19.00;91.80;;;;;;5039346;28;20059;-86
2021/06/23 06:13:03;;;;;;;17.83;10.20;;;19.00;91.60;;;;;;5039377;28;20024;-86
2021/06/23 06:15:28;;;;;;;16.15;10.35;;;19.00;91.70;;;;;;5039860;28;20079;-84
2021/06/23 06:18:02;;;;;;;13.23;10.00;;;19.10;91.50;;;;;;5038305;28;20021;-84
2021/06/23 06:20:28;;;;;;;17.85;10.60;;;19.20;91.40;;;;;;5038363;28;20037;-82
2021/06/23 06:22:54;;;;;;;16.08;10.32;;;19.20;91.90;;;;;;5056180;28;20515;-83
2021/06/23 06:25:20;;;;;;;16.27;9.88;;;19.20;91.60;;;;;;5037795;28;20029;-84
2021/06/23 06:27:45;;;;;;;16.58;10.38;;;19.30;91.60;;;;;;5038356;28;20024;-84
2021/06/23 06:30:12;;;;;;;15.90;10.70;;;19.30;91.50;;;;;;5037829;28;20120;-84
2021/06/23 06:32:38;;;;;;;16.85;10.50;;;19.30;91.60;;;;;;5038177;28;20468;-86
2021/06/23 06:35:04;;;;;;;15.98;9.63;;;19.30;91.70;;;;;;5055420;28;20029;-86
2021/06/23 06:37:30;;;;;;;17.30;10.88;;;19.30;91.70;;;;;;5037888;28;20561;-85
2021/06/23 06:39:56;;;;;;;13.90;9.68;;;19.40;91.70;;;;;;5055717;28;20095;-84
2021/06/23 06:42:22;;;;;;;18.08;10.25;;;19.50;91.40;;;;;;5024466;28;20023;-84
2021/06/23 06:44:47;;;;;;;15.32;8.88;;;19.50;91.40;;;;;;5033217;28;20060;-82
2021/06/23 06:47:13;;;;;;;12.43;8.60;;;19.50;91.40;;;;;;5037343;28;20028;-83
2021/06/23 06:49:39;;;;;;;15.95;9.10;;;19.50;91.80;;;;;;5037654;28;20079;-82
2021/06/23 06:52:05;;;;;;;15.15;8.90;;;19.50;91.60;;;;;;5037166;28;20024;-83
2021/06/23 06:54:31;;;;;;;15.65;8.90;;;19.40;91.50;;;;;;5055290;28;20067;-82
2021/06/23 06:56:57;;;;;;;13.85;8.55;;;19.50;91.40;;;;;;5037769;28;20017;-82
2021/06/23 06:59:23;;;;;;;14.93;9.73;;;19.40;91.20;;;;;;5037317;28;20028;-82
2021/06/23 07:01:49;;;;;;;13.50;9.77;;;19.50;91.00;;;;;;5037158;28;20025;-81
2021/06/23 07:04:16;;;;;;;13.00;9.18;;;19.50;91.00;;;;;;5036842;28;20078;-82
2021/06/23 07:06:43;;;;;;;16.15;10.63;;;19.40;91.30;;;;;;5037200;28;20059;-81
2021/06/23 07:09:09;;;;;;;14.05;9.88;;;19.40;91.30;;;;;;5036476;28;20025;-83
2021/06/23 07:11:37;;;;;;;13.57;10.30;;;19.40;91.40;;;;;;5030822;28;20506;-82
2021/06/23 07:14:03;;;;;;;15.48;10.10;;;19.50;91.10;;;;;;5018165;28;20116;-82
2021/06/23 07:16:31;;;;;;;17.83;10.57;;;19.60;91.00;;;;;;5037025;28;20460;-82
2021/06/23 07:19:03;;;;;;;15.18;10.32;;;19.70;91.00;;;;;;5036607;28;20119;-88
2021/06/23 07:21:28;;;;;;;18.52;11.77;;;19.70;90.80;;;;;;5036532;28;20021;-83
2021/06/23 07:23:58;;;;;;;20.92;12.20;;;19.70;90.80;;;;;;5037285;28;20086;-83
2021/06/23 07:26:25;;;;;;;17.85;12.02;;;19.70;91.20;;;;;;5036848;28;20449;-82
2021/06/23 07:36:57;;;;;;;16.63;10.60;;;19.80;90.80;;;;;;5054491;28;20470;-84
2021/06/23 07:39:23;;;;;;;16.15;10.95;;;19.80;90.90;;;;;;5036356;28;20025;-84
2021/06/23 07:41:50;;;;;;;13.40;10.40;;;19.80;90.80;;;;;;5036648;28;20078;-85
2021/06/23 07:44:24;;;;;;;16.92;10.73;;;19.90;90.60;;;;;;5036174;28;20048;-84
2021/06/23 07:46:53;;;;;;;16.45;10.95;;;19.90;90.60;;;;;;5054483;28;20024;-83
2021/06/23 07:49:21;;;;;;;15.48;11.20;;;19.90;90.70;;;;;;5036012;28;20040;-85
2021/06/23 07:52:07;;;;;;;16.10;10.75;;;19.80;90.80;;;;;;5054477;28;20457;-84
2021/06/23 08:10:58;;;;;;;18.73;10.23;;;19.70;91.00;;;;;;5053520;28;20035;-85
2021/06/23 08:13:15;;;;;;;15.52;9.52;;;19.80;91.00;;;;;;5049028;28;20108;-84
2021/06/23 08:15:44;;;;;;;15.20;9.40;;;19.80;90.80;;;;;;5036409;28;20033;-86
2021/06/23 08:18:09;;;;;;;12.82;9.38;;;19.90;90.90;;;;;;5035426;28;20021;-84
2021/06/23 08:20:36;;;;;;;13.30;9.35;;;20.00;90.60;;;;;;5036085;28;20021;-84
2021/06/23 08:23:03;;;;;;;15.45;10.13;;;20.10;90.40;;;;;;5052971;28;20041;-83
2021/06/23 08:25:28;;;;;;;12.63;9.75;;;20.10;90.20;;;;;;5035963;28;20033;-81
2021/06/23 08:27:54;;;;;;;12.77;9.38;;;20.20;90.00;;;;;;5035862;28;20066;-83
2021/06/23 08:30:21;;;;;;;14.65;8.98;;;20.30;90.10;;;;;;5035383;28;20029;-81
2021/06/23 08:32:47;;;;;;;14.52;8.93;;;20.40;89.60;;;;;;5053594;28;20082;-82
2021/06/23 08:35:14;;;;;;;11.90;8.90;;;20.60;90.30;;;;;;5035023;28;20029;-83
2021/06/23 08:37:41;;;;;;;13.98;8.80;;;20.70;90.00;;;;;;5053035;28;20021;-82
2021/06/23 08:40:09;;;;;;;14.55;9.60;;;20.80;90.10;;;;;;5035499;28;20021;-83
2021/06/23 08:42:35;;;;;;;13.70;9.30;;;20.80;90.00;;;;;;5033501;28;20043;-90
2021/06/23 08:45:02;;;;;;;14.57;10.85;;;20.70;89.60;;;;;;5051630;28;20053;-83
2021/06/23 08:47:29;;;;;;;13.73;10.20;;;20.60;89.10;;;;;;5061521;28;20438;-95
2021/06/23 08:49:54;;;;;;;13.88;10.43;;;20.70;89.30;;;;;;5048593;28;20029;-88
2021/06/23 08:52:20;;;;;;;13.57;10.38;;;20.60;88.80;;;;;;5043765;28;20086;-85
2021/06/23 08:54:53;;;;;;;14.50;10.07;;;20.70;89.20;;;;;;5050138;28;20407;-83
2021/06/23 08:57:19;;;;;;;14.00;9.43;;;20.80;88.70;;;;;;5038336;28;20079;-83
2021/06/23 08:59:45;;;;;;;17.45;9.82;;;20.90;88.40;;;;;;5073338;28;20028;-83
2021/06/23 09:02:15;;;;;;;15.30;9.50;;;21.00;88.70;;;;;;5044962;28;20032;-86
2021/06/23 09:04:57;;;;;;;13.38;9.50;;;21.20;88.20;;;;;;5048424;28;20065;-85
2021/06/23 09:07:58;;;;;;;11.40;7.93;;;21.30;87.70;;;;;;5048953;28;20095;-81
2021/06/23 09:10:24;;;;;;;10.00;8.00;;;21.30;87.40;;;;;;5030624;28;20492;-85
2021/06/23 09:13:07;;;;;;;10.65;7.88;;;21.20;88.70;;;;;;5040321;28;20017;-85
2021/06/23 09:15:44;;;;;;;12.27;7.50;;;21.10;88.60;;;;;;5056839;28;20119;-86
2021/06/23 09:18:14;;;;;;;10.68;7.28;;;21.10;88.20;;;;;;5062830;28;20104;-85
2021/06/23 09:20:41;;;;;;;10.65;7.35;;;21.20;88.00;;;;;;5048730;28;20016;-83
2021/06/23 09:23:07;;;;;;;10.85;7.53;;;21.20;87.00;;;;;;5038079;28;20021;-84
2021/06/23 09:25:35;;;;;;;8.07;6.50;;;21.30;87.70;;;;;;5049516;28;20021;-85
2021/06/23 09:28:03;;;;;;;9.30;6.70;;;21.30;87.00;;;;;;5046504;28;20009;-84
2021/06/23 09:30:34;;;;;;;10.20;7.05;;;21.30;87.10;;;;;;5043535;28;20056;-82
2021/06/23 09:33:19;;;;;;;10.85;7.28;;;21.20;87.50;;;;;;5051418;28;20052;-86
2021/06/23 09:36:00;;;;;;;12.60;7.68;;;21.10;87.10;;;;;;5044534;28;20032;-83
2021/06/23 09:38:50;;;;;;;10.50;6.90;;;21.10;88.00;;;;;;5047181;28;20028;-83
2021/06/23 09:41:25;;;;;;;9.65;6.60;;;21.00;88.30;;;;;;5062045;28;20103;-83
2021/06/23 09:43:54;;;;;;;9.38;6.70;;;21.00;87.80;;;;;;5048041;28;20041;-83
2021/06/23 09:46:24;;;;;;;9.98;6.75;;;21.00;87.20;;;;;;5045666;28;20485;-85
2021/06/23 09:49:00;;;;;;;7.88;6.40;;;21.10;87.30;;;;;;5040187;28;20021;-82
2021/06/23 09:51:26;;;;;;;8.45;6.50;;;21.20;87.00;;;;;;5035303;28;20057;-83
2021/06/23 09:54:03;;;;;;;7.82;5.57;;;21.30;87.00;;;;;;5042274;28;20052;-83
2021/06/23 09:56:36;;;;;;;8.35;5.38;;;21.50;85.70;;;;;;5042954;28;20041;-83
2021/06/23 09:59:03;;;;;;;7.03;5.25;;;21.70;84.80;;;;;;5034972;28;20023;-84
2021/06/23 10:01:30;;;;;;;8.60;5.18;;;21.80;83.90;;;;;;5051005;28;20029;-85
2021/06/23 10:04:08;;;;;;;6.43;5.28;;;21.90;84.20;;;;;;5036796;28;20026;-85
2021/06/23 10:06:47;;;;;;;7.30;4.88;;;21.90;83.90;;;;;;5044262;28;20029;-83
2021/06/23 10:09:15;;;;;;;6.57;4.90;;;22.00;83.40;;;;;;5040795;28;20021;-85
2021/06/23 10:11:41;;;;;;;7.35;5.22;;;22.10;82.40;;;;;;5044303;28;20114;-84
2021/06/23 10:14:09;;;;;;;7.80;5.18;;;22.20;82.20;;;;;;5042288;28;20021;-83
2021/06/23 10:16:35;;;;;;;7.70;5.05;;;22.20;82.00;;;;;;5034972;28;20030;-83
2021/06/23 10:19:06;;;;;;;6.10;5.22;;;22.20;81.40;;;;;;5050526;28;20155;-86
2021/06/23 10:21:33;;;;;;;5.85;4.95;;;22.30;81.10;;;;;;5049724;28;20091;-84
2021/06/23 10:23:59;;;;;;;6.45;4.68;;;22.40;80.80;;;;;;5034558;28;20029;-85
2021/06/23 10:26:30;;;;;;;6.20;4.68;;;22.40;80.60;;;;;;5040727;28;20037;-84
2021/06/23 10:28:59;;;;;;;5.85;4.93;;;22.40;81.30;;;;;;5049734;28;20029;-84
2021/06/23 10:31:27;;;;;;;4.60;4.15;;;22.40;81.60;;;;;;5037325;28;20021;-84
2021/06/23 10:33:54;;;;;;;4.78;3.95;;;22.40;81.60;;;;;;5048326;28;20018;-81
2021/06/23 10:36:23;;;;;;;5.75;4.05;;;22.40;81.50;;;;;;5033801;28;20037;-84
2021/06/23 10:38:50;;;;;;;6.38;4.70;;;22.50;81.30;;;;;;5048986;28;20021;-83
2021/06/23 10:41:16;;;;;;;4.82;4.32;;;22.60;79.30;;;;;;5036264;28;20028;-84
2021/06/23 10:43:43;;;;;;;7.45;5.30;;;22.80;79.50;;;;;;5033911;28;20045;-85
2021/06/23 10:46:10;;;;;;;4.93;4.40;;;22.80;79.30;;;;;;5042425;28;20116;-88
2021/06/23 10:49:00;;;;;;;6.30;5.53;;;22.90;79.60;;;;;;5041566;28;20017;-90
2021/06/23 10:51:26;;;;;;;6.32;5.28;;;23.00;78.80;;;;;;5044787;28;20021;-87
2021/06/23 10:53:55;;;;;;;7.20;5.72;;;23.10;79.60;;;;;;5048026;28;20061;-89
2021/06/23 10:56:41;;;;;;;10.48;6.47;;;23.10;78.30;;;;;;5044368;28;20041;-84
2021/06/23 10:59:35;;;;;;;8.13;5.25;;;23.30;77.70;;;;;;5034555;28;20063;-89
2021/06/23 11:02:08;;;;;;;8.07;5.30;;;23.30;77.20;;;;;;5053614;28;20071;-89
2021/06/23 11:05:00;;;;;;;8.43;5.05;;;23.30;78.10;;;;;;5056465;28;20052;-91
2021/06/23 11:07:39;;;;;;;5.55;4.85;;;23.10;78.80;;;;;;5055112;28;20466;-89
2021/06/23 11:12:53;;;;;;;6.03;4.78;;;23.30;78.60;;;;;;5040985;28;20030;-90
2021/06/23 11:15:23;;;;;;;5.80;4.88;;;23.30;76.90;;;;;;5033852;28;20060;-89
2021/06/23 11:17:51;;;;;;;6.57;5.10;;;23.30;76.50;;;;;;5034609;28;20025;-91
2021/06/23 11:20:19;;;;;;;6.13;4.97;;;23.30;77.00;;;;;;5034145;28;20025;-92
2021/06/23 11:22:49;;;;;;;6.57;4.68;;;23.20;77.10;;;;;;5033994;28;20120;-90
2021/06/23 11:25:31;;;;;;;6.35;4.53;;;23.10;78.60;;;;;;5034562;28;20021;-92
2021/06/23 11:28:09;;;;;;;5.45;4.57;;;23.00;78.00;;;;;;5036060;28;20116;-93
2021/06/23 11:30:49;;;;;;;8.50;4.60;;;23.00;78.90;;;;;;5034774;28;20022;-93
2021/06/23 11:33:27;;;;;;;7.13;4.97;;;23.00;78.10;;;;;;5034510;28;20425;-92
2021/06/23 11:36:07;;;;;;;4.85;4.22;;;23.10;78.30;;;;;;5033423;28;20099;-85
2021/06/23 11:38:33;;;;;;;5.95;5.03;;;23.10;78.00;;;;;;5037193;28;20033;-91
2021/06/23 11:41:09;;;;;;;7.60;5.13;;;23.10;77.60;;;;;;5040928;28;20037;-91
2021/06/23 11:43:35;;;;;;;5.32;4.43;;;23.20;77.60;;;;;;5053661;28;20064;-93
2021/06/23 11:46:01;;;;;;;6.00;4.47;;;23.20;78.30;;;;;;5053583;28;20086;-92
2021/06/23 11:48:26;;;;;;;6.50;4.78;;;23.40;79.10;;;;;;5053486;28;20025;-88
2021/06/23 11:50:58;;;;;;;5.93;4.65;;;23.40;78.20;;;;;;5046330;28;20033;-95
2021/06/23 11:53:32;;;;;;;;;;;23.50;77.30;;;;;;5044644;28;20017;-88
2021/06/23 11:56:00;;;;;;;5.35;4.85;;;23.60;76.60;;;;;;5054067;28;19919;-88
2021/06/23 11:58:26;;;;;;;6.18;4.72;;;23.80;76.60;;;;;;5034720;28;20026;-86
2021/06/23 12:00:51;;;;;;;6.57;4.82;;;23.80;76.50;;;;;;5034497;28;20028;-84
2021/06/23 12:03:18;;;;;;;6.60;4.82;;;23.90;75.60;;;;;;5032672;28;20053;-84
2021/06/23 12:05:46;;;;;;;5.05;4.43;;;23.90;78.30;;;;;;5033110;28;20048;-84
2021/06/23 12:08:12;;;;;;;5.07;4.53;;;24.00;78.40;;;;;;5023328;28;20515;-84
2021/06/23 12:10:39;;;;;;;6.25;4.15;;;24.10;76.90;;;;;;5045268;28;20047;-85
2021/06/23 12:13:05;;;;;;;6.13;4.30;;;24.20;74.00;;;;;;5037676;28;20031;-87
2021/06/23 12:15:40;;;;;;;5.20;4.03;;;24.10;74.30;;;;;;5039223;28;20119;-87
2021/06/23 12:18:13;;;;;;;5.60;4.10;;;24.10;74.80;;;;;;5050327;28;20025;-90
2021/06/23 12:20:45;;;;;;;6.57;4.65;;;24.20;74.90;;;;;;5047850;28;20029;-91
2021/06/23 12:23:12;;;;;;;6.53;5.05;;;24.30;74.40;;;;;;5054742;28;20446;-88
2021/06/23 12:25:42;;;;;;;51.95;29.70;;;24.30;72.90;;;;;;5056236;28;20032;-93
2021/06/23 12:28:11;;;;;;;9.23;6.30;;;24.20;72.90;;;;;;5055410;28;20025;-89
2021/06/23 12:30:40;;;;;;;5.68;4.85;;;24.20;72.70;;;;;;5055019;28;20365;-89
2021/06/23 12:33:10;;;;;;;5.60;4.25;;;24.30;73.80;;;;;;5054731;28;20040;-87
2021/06/23 12:35:36;;;;;;;6.60;4.70;;;24.50;73.60;;;;;;5054459;28;20052;-86
2021/06/23 12:38:04;;;;;;;5.40;4.75;;;24.80;71.80;;;;;;5048181;28;20021;-86
2021/06/23 12:40:30;;;;;;;6.60;4.68;;;25.00;71.90;;;;;;5035123;28;20024;-88
2021/06/23 12:42:56;;;;;;;5.70;4.55;;;25.00;70.40;;;;;;5031989;28;20382;-87
2021/06/23 12:45:22;;;;;;;5.70;4.88;;;25.00;70.00;;;;;;5037220;28;20107;-88
2021/06/23 12:47:48;;;;;;;4.97;4.47;;;25.10;69.00;;;;;;5055600;28;20025;-88
2021/06/23 12:50:17;;;;;;;5.18;4.45;;;25.10;69.40;;;;;;5037798;28;20371;-87
2021/06/23 12:52:48;;;;;;;6.72;4.72;;;25.10;69.10;;;;;;5037932;28;20025;-87
2021/06/23 12:55:17;;;;;;;4.70;4.28;;;25.10;68.60;;;;;;5036825;28;20475;-85
2021/06/23 12:57:49;;;;;;;5.13;4.63;;;25.20;68.30;;;;;;5037867;28;20029;-87
2021/06/23 13:00:19;;;;;;;;;;;25.40;67.90;;;;;;5038174;28;20159;-88
2021/06/23 13:02:50;;;;;;;5.78;4.40;;;25.40;66.80;;;;;;5038102;28;19932;-88
2021/06/23 13:05:20;;;;;;;4.38;3.92;;;25.40;66.70;;;;;;5037895;28;20120;-88
2021/06/23 13:07:47;;;;;;;5.68;4.03;;;25.40;67.30;;;;;;5039574;28;20115;-89
2021/06/23 13:10:15;;;;;;;4.97;4.38;;;25.60;67.20;;;;;;5040837;28;20031;-85
2021/06/23 13:12:42;;;;;;;4.60;3.70;;;25.80;64.70;;;;;;5043832;28;20029;-86